Terminal Aerodrome Forecast
Issued by NWS Albuquerque, NM

Home | Current Version | Previous Version | Text Only | Print | Product List | Glossary On
Versions: 1 2 3 4 5 6 7 8 9 10 11 12 13 14 15 16
000
FTUS45 KABQ 261700
TAFABQ
TAF
KABQ 261734Z 2618/2718 26016G26KT P6SM FEW020 SCT050
     FM262200 29014G24KT P6SM VCSH FEW025 BKN040
     FM270100 35005KT P6SM SCT060
     FM271200 01004KT P6SM VCFG SCT004
     FM271600 36005KT P6SM SKC=

USA.gov is the U.S. government's official web portal to all federal, state and local government web resources and services.